KERO2: Robert S. Kerr Lock & Dam & Reservoir (L&D 15)

Data processed at Thu Jan 23 2020 21:55


All information presented herein is the property of the government of the United States of America and may be revised or deleted at any time without prior notice.
Dissemination of this information without the expressed written consent of the Public Affairs Office, Tulsa District U.S. Army Corps of Engineers is strictly prohibited.
These data are gathered electronically and, as presented, have not undergone any form of quality control. These data are not guaranteed to be valid or correct.
Go to home page.
Go to station list.
Go to home page.

Upstream stations:

Downstream station:
Previous Day
Next Day
Current Day
    
SHEF ID:       KERO2     RS Kerr LD15
STATION TYPE:  NAVIGATION LOCK
Navigation Pool:  Bottom =   458.00, Top =   460.00

               PRECIP ELEVATION   STORAGE   TW-ELEV    INFLOW   RELEASE  AIR-TEMP  WIND-DIRWIND-SPEED REL-HUMID SOLAR-RAD   VOLTAGE  BAT-LOAD
                   in        ft     ac-ft        ft       cfs       cfs         F       deg       mph         %      W/m2      volt      volt
              Ccp-Rev   Ccp-Rev   Ccp-Rev   Ccp-Rev  Rev-Regi  Rev-Regi   Ccp-Rev   Ccp-Rev   Ccp-Rev   Ccp-Rev   Ccp-Rev   Ccp-Rev   Ccp-Rev
(US/Central)
01/23 00:00      0.00    460.88    565396    420.60    114455    102799     36.37     46.20      3.37    100.26      0.00     13.85     13.48
01/23 01:00      0.00    460.89    565847    420.59    111225    102450     36.37     39.00      2.85    100.26      0.00     13.85     13.48
01/23 02:00      0.01    460.92    567200    420.59    117701    102475     36.50     46.90      3.06    100.20      0.00     13.85     13.48
01/23 03:00      0.02    460.94    568103    420.57    110043    102175     36.50     45.30      3.43    100.26      0.00     13.85     13.48
01/23 04:00      0.00    460.96    569005    420.60    114466    102175     36.37     41.50      2.79    100.20      0.00     13.86     13.48
01/23 05:00      0.00    460.95    568554    420.62    114604    103000     36.37     42.80      2.41    100.20      0.00     13.86     13.48
01/23 06:00      0.01    461.00    570810    420.61    113577    102175     36.48     43.10      2.50    100.12      0.00     13.88     13.48
01/23 07:00      0.00    461.03    572243    420.63    114862    102475     36.48     43.10      2.90    100.31      0.00     13.88     13.48
01/23 08:00      0.00    461.04    572721    420.64    118381    102175     36.61     45.10      1.66    100.26      1.00     13.88     13.48
01/23 09:00      0.00    461.07    574155    420.64    113913    102750     36.72     43.20      1.25    100.20     23.00     13.86     13.48
01/23 10:00      0.00    461.09    575110    420.64    113973    102175     37.60     37.80      1.05    100.07     46.00     13.88     13.48
01/23 11:00      0.00    461.10    575588    420.64    115119    102475     38.14      7.80      0.23    100.20     66.00     13.86     13.48
01/23 12:00      0.00    461.13    577021    420.67    114078    102425     38.48    218.00      1.68    100.20    134.00     13.86     13.48
01/23 13:00      0.00    461.15    577977    420.68    109338    102750     39.90    230.90      3.18    100.20    144.00     13.86     13.48
01/23 14:00      0.00    461.17    578933    420.73    108016    102175     42.53    231.90      5.08    100.13    163.00     13.86     13.48
01/23 15:00      0.00    461.15    577977    421.38    103441    101350     43.63    263.50      4.22    100.26     90.00     13.86     13.48
01/23 16:00      0.00    461.15    577977    421.61    101129    102725     45.27    193.00      2.02    100.24    244.00     13.86     13.48
01/23 17:00      0.00    461.14    577499    421.70     98811    102425     45.72    167.50      1.44    100.26    192.00     13.86     13.48
01/23 18:00      0.00    461.14    577499    421.72    101177    102725     43.63    105.20      0.33    100.24     15.00     13.89     13.48
01/23 19:00      0.00    461.14    577499    421.79    108330    102450     42.21     53.80      1.58    100.26      0.00     13.86     13.48
01/23 20:00      0.00    461.14    577499    421.88    109430    102425     40.01    358.00      1.87    100.26      0.00     13.86     13.48
01/23 21:00      0.00    461.20    580366    421.81    123302    102425     42.64    285.90      0.80    100.24      0.00     13.88     13.48
01/23 22:00      ----      ----      ----      ----      ----      ----      ----      ----      ----      ----      ----      ----      ----
01/23 23:00      ----      ----      ----      ----      ----      ----      ----      ----      ----      ----      ----      ----      ----